Time;durP1;ratioP1;P1;durP2;ratioP2;P2;SDS_P1;SDS_P2;PMS_P1;PMS_P2;Temp;Humidity;BMP_temperature;BMP_pressure;BME280_temperature;BME280_humidity;BME280_pressure;Samples;Min_cycle;Max_cycle;Signal;HPM_P1;HPM_P2
2023/07/11 00:02:13;;;;;;;4.07;1.58;;;16.30;99.90;;;;;;5062498;28;20509;-79
2023/07/11 00:04:38;;;;;;;6.75;1.42;;;16.30;99.90;;;;;;5060278;28;20624;-81
2023/07/11 00:07:04;;;;;;;3.08;0.88;;;16.40;99.90;;;;;;5063582;28;20088;-81
2023/07/11 00:09:29;;;;;;;7.88;1.50;;;16.50;99.90;;;;;;5061288;28;20059;-80
2023/07/11 00:11:55;;;;;;;6.63;1.25;;;16.60;99.90;;;;;;5063334;28;20044;-80
2023/07/11 00:14:20;;;;;;;4.93;1.27;;;16.60;99.90;;;;;;5064782;28;20048;-81
2023/07/11 00:16:46;;;;;;;4.93;1.10;;;16.60;99.90;;;;;;5060278;28;20445;-81
2023/07/11 00:19:12;;;;;;;7.82;0.98;;;16.60;99.90;;;;;;5063358;28;20056;-81
2023/07/11 00:21:38;;;;;;;5.30;1.20;;;16.70;99.90;;;;;;5063295;28;20048;-81
2023/07/11 00:24:05;;;;;;;5.43;1.52;;;16.60;99.90;;;;;;5061713;28;20732;-81
2023/07/11 00:26:33;;;;;;;6.13;1.40;;;16.70;99.90;;;;;;5063332;28;20090;-81
2023/07/11 00:29:14;;;;;;;5.05;1.00;;;16.70;99.90;;;;;;5060897;28;20055;-80
2023/07/11 00:31:39;;;;;;;7.35;1.48;;;16.70;99.90;;;;;;5062152;28;20067;-81
2023/07/11 00:34:05;;;;;;;4.55;1.60;;;16.70;99.90;;;;;;5062881;28;20065;-81
2023/07/11 00:36:30;;;;;;;5.65;1.10;;;16.70;99.90;;;;;;5064289;28;20075;-80
2023/07/11 00:38:56;;;;;;;3.40;1.10;;;16.70;99.90;;;;;;5062200;28;20836;-81
2023/07/11 00:41:22;;;;;;;4.65;1.02;;;16.70;99.90;;;;;;5060276;28;20044;-81
2023/07/11 00:43:47;;;;;;;2.63;0.80;;;16.70;99.90;;;;;;5063415;28;20039;-81
2023/07/11 00:46:18;;;;;;;3.30;0.90;;;16.70;99.90;;;;;;5064042;28;20044;-80
2023/07/11 00:48:56;;;;;;;3.03;0.88;;;16.80;99.90;;;;;;5062656;28;20051;-80
2023/07/11 00:51:32;;;;;;;5.40;1.30;;;16.70;99.90;;;;;;5063232;28;20041;-79
2023/07/11 00:53:59;;;;;;;5.18;1.08;;;16.80;99.90;;;;;;5062642;28;20033;-81
2023/07/11 00:56:29;;;;;;;5.50;1.10;;;16.80;99.90;;;;;;5061047;28;20052;-81
2023/07/11 00:58:56;;;;;;;4.43;1.00;;;16.80;99.90;;;;;;5061095;28;20122;-81
2023/07/11 01:01:23;;;;;;;5.07;0.95;;;16.80;99.90;;;;;;5068252;28;20055;-80
2023/07/11 01:03:51;;;;;;;4.65;1.17;;;16.70;99.90;;;;;;5067222;28;20047;-81
2023/07/11 01:06:20;;;;;;;5.63;0.80;;;16.80;99.90;;;;;;5067150;28;20033;-81
2023/07/11 01:08:48;;;;;;;4.97;1.08;;;16.70;99.90;;;;;;5067405;28;20102;-79
2023/07/11 01:11:14;;;;;;;9.52;1.30;;;16.60;99.90;;;;;;5064160;28;20075;-81
2023/07/11 01:13:39;;;;;;;4.78;1.27;;;16.60;99.90;;;;;;5063705;28;20033;-81
2023/07/11 01:16:05;;;;;;;3.22;0.40;;;16.60;99.90;;;;;;5065644;28;20029;-80
2023/07/11 01:18:31;;;;;;;5.40;0.90;;;16.60;99.90;;;;;;5063836;28;20178;-81
2023/07/11 01:20:57;;;;;;;4.18;0.98;;;16.50;99.90;;;;;;5065460;28;20037;-81
2023/07/11 01:23:23;;;;;;;4.07;1.23;;;16.40;99.90;;;;;;5065643;28;20392;-81
2023/07/11 01:25:49;;;;;;;3.38;0.88;;;16.30;99.90;;;;;;5065936;28;20040;-81
2023/07/11 01:28:15;;;;;;;4.88;0.70;;;16.20;99.90;;;;;;5066764;28;20063;-81
2023/07/11 01:30:41;;;;;;;7.40;0.95;;;16.10;99.90;;;;;;5048151;28;20722;-79
2023/07/11 01:33:06;;;;;;;4.07;0.90;;;16.10;99.90;;;;;;5067207;28;20066;-78
2023/07/11 01:35:32;;;;;;;3.90;0.70;;;16.10;99.90;;;;;;5063424;28;20043;-81
2023/07/11 01:37:57;;;;;;;4.63;0.90;;;16.10;99.90;;;;;;5062106;28;20447;-81
2023/07/11 01:40:23;;;;;;;5.22;0.90;;;16.00;99.90;;;;;;5060428;28;21462;-80
2023/07/11 01:42:50;;;;;;;3.30;1.10;;;16.00;99.90;;;;;;5045964;28;20068;-81
2023/07/11 01:45:16;;;;;;;3.90;1.20;;;16.00;99.90;;;;;;5067071;28;20048;-79
2023/07/11 01:47:41;;;;;;;4.30;0.95;;;15.90;99.90;;;;;;5064853;28;20045;-80
2023/07/11 01:50:08;;;;;;;5.30;1.15;;;16.00;99.90;;;;;;5064293;28;20127;-81
2023/07/11 01:52:34;;;;;;;5.55;1.10;;;16.00;99.90;;;;;;5067082;28;20044;-81
2023/07/11 01:54:59;;;;;;;3.00;1.00;;;16.00;99.90;;;;;;5064678;28;20036;-81
2023/07/11 01:57:28;;;;;;;5.45;1.00;;;15.90;99.90;;;;;;5065832;28;20055;-80
2023/07/11 01:59:53;;;;;;;4.50;0.80;;;15.90;99.90;;;;;;5065645;28;20096;-80
2023/07/11 02:02:19;;;;;;;5.07;1.20;;;15.90;99.90;;;;;;5066696;28;20522;-78
2023/07/11 02:04:45;;;;;;;5.95;0.93;;;15.90;99.90;;;;;;5068970;28;20033;-81
2023/07/11 02:07:11;;;;;;;4.55;1.13;;;15.80;99.90;;;;;;5066542;28;20169;-80
2023/07/11 02:09:37;;;;;;;4.07;1.15;;;15.70;99.90;;;;;;5048218;28;20816;-79
2023/07/11 02:12:03;;;;;;;2.75;1.00;;;15.60;99.90;;;;;;5063157;28;20048;-81
2023/07/11 02:14:29;;;;;;;6.82;0.88;;;15.60;99.90;;;;;;5066354;28;20033;-81
2023/07/11 02:16:55;;;;;;;3.67;0.90;;;15.60;99.90;;;;;;5079343;28;20098;-80
2023/07/11 02:19:23;;;;;;;5.25;1.00;;;15.50;99.90;;;;;;5062103;28;20092;-81
2023/07/11 02:21:49;;;;;;;4.78;1.02;;;15.60;99.90;;;;;;5065274;28;20125;-79
2023/07/11 02:24:16;;;;;;;2.97;0.98;;;15.50;99.90;;;;;;5064451;28;20044;-78
2023/07/11 02:26:42;;;;;;;4.18;0.90;;;15.60;99.90;;;;;;5060614;28;20067;-81
2023/07/11 02:29:08;;;;;;;4.78;1.50;;;15.60;99.90;;;;;;5063915;28;20040;-81
2023/07/11 02:31:35;;;;;;;4.32;1.05;;;15.60;99.90;;;;;;5061366;28;20077;-81
2023/07/11 02:34:02;;;;;;;4.03;0.90;;;15.60;99.90;;;;;;5058242;28;20052;-80
2023/07/11 02:36:28;;;;;;;2.45;1.02;;;15.60;99.90;;;;;;5065311;28;20037;-80
2023/07/11 02:38:54;;;;;;;5.18;1.30;;;15.60;99.90;;;;;;5061272;28;20054;-81
2023/07/11 02:41:19;;;;;;;5.55;1.00;;;15.70;99.90;;;;;;5063165;28;20036;-79
2023/07/11 02:43:48;;;;;;;3.22;1.15;;;15.60;99.90;;;;;;5060934;28;20047;-78
2023/07/11 02:46:15;;;;;;;7.15;0.90;;;15.60;99.90;;;;;;5062860;28;20644;-80
2023/07/11 02:48:41;;;;;;;8.27;2.67;;;15.60;99.90;;;;;;5078552;28;20828;-80
2023/07/11 02:51:07;;;;;;;4.75;1.02;;;15.60;99.90;;;;;;5061175;28;20045;-79
2023/07/11 02:53:32;;;;;;;3.80;0.82;;;15.50;99.90;;;;;;5061459;28;20508;-80
2023/07/11 02:55:58;;;;;;;5.10;0.93;;;15.50;99.90;;;;;;5062693;28;20091;-80
2023/07/11 02:58:24;;;;;;;5.30;0.77;;;15.50;99.90;;;;;;5060463;28;20040;-80
2023/07/11 03:00:55;;;;;;;6.55;0.93;;;15.50;99.90;;;;;;5058270;28;20040;-80
2023/07/11 03:03:21;;;;;;;6.90;1.35;;;15.40;99.90;;;;;;5064861;28;20394;-80
2023/07/11 03:05:49;;;;;;;4.43;0.90;;;15.40;99.90;;;;;;5064002;28;20043;-81
2023/07/11 03:08:15;;;;;;;4.78;1.42;;;15.40;99.90;;;;;;5062173;28;20072;-80
2023/07/11 03:10:41;;;;;;;6.47;1.60;;;15.40;99.90;;;;;;5065670;28;20090;-81
2023/07/11 03:13:07;;;;;;;3.72;0.90;;;15.40;99.90;;;;;;5064415;28;20041;-81
2023/07/11 03:15:34;;;;;;;3.00;1.10;;;15.30;99.90;;;;;;5060847;28;20045;-81
2023/07/11 03:17:59;;;;;;;5.47;1.33;;;15.30;99.90;;;;;;5064766;28;20394;-80
2023/07/11 03:20:25;;;;;;;4.03;1.27;;;15.30;99.90;;;;;;5065958;28;20119;-81
2023/07/11 03:22:51;;;;;;;2.35;1.05;;;15.30;99.90;;;;;;5066567;28;20099;-81
2023/07/11 03:25:16;;;;;;;5.72;1.15;;;15.30;99.90;;;;;;5065934;28;20414;-79
2023/07/11 03:27:42;;;;;;;8.82;2.00;;;15.30;99.90;;;;;;5064219;28;20041;-81
2023/07/11 03:30:08;;;;;;;6.00;1.33;;;15.30;99.90;;;;;;5063554;28;20066;-78
2023/07/11 03:32:33;;;;;;;4.75;1.13;;;15.30;99.90;;;;;;5067526;28;20060;-81
2023/07/11 03:34:59;;;;;;;5.95;1.77;;;15.30;99.90;;;;;;5062731;28;20483;-81
2023/07/11 03:37:25;;;;;;;5.18;1.20;;;15.40;99.90;;;;;;5063735;28;20493;-81
2023/07/11 03:39:51;;;;;;;5.88;1.45;;;15.30;99.90;;;;;;5060998;28;20052;-79
2023/07/11 03:42:16;;;;;;;5.20;1.42;;;15.40;99.90;;;;;;5064496;28;20044;-81
2023/07/11 03:44:42;;;;;;;3.72;1.23;;;15.30;99.90;;;;;;5066178;28;20037;-78
2023/07/11 03:47:08;;;;;;;2.45;1.20;;;15.40;99.90;;;;;;5059647;28;20110;-81
2023/07/11 03:49:34;;;;;;;5.70;1.15;;;15.40;99.90;;;;;;5065684;28;20037;-81
2023/07/11 03:52:00;;;;;;;8.90;2.08;;;15.40;99.90;;;;;;5064708;28;20036;-81
2023/07/11 03:54:25;;;;;;;6.55;1.40;;;15.40;99.90;;;;;;5063359;28;20333;-80
2023/07/11 03:56:52;;;;;;;4.65;1.15;;;15.40;99.90;;;;;;5065051;28;20502;-81
2023/07/11 03:59:18;;;;;;;6.57;1.48;;;15.40;99.90;;;;;;5064537;28;20040;-81
2023/07/11 04:01:44;;;;;;;5.55;1.45;;;15.40;99.90;;;;;;5060675;28;20097;-80
2023/07/11 04:04:10;;;;;;;4.15;1.42;;;15.50;99.90;;;;;;5063320;28;20037;-81
2023/07/11 04:06:35;;;;;;;3.95;1.35;;;15.50;99.90;;;;;;5061160;28;21189;-81
2023/07/11 04:09:01;;;;;;;3.47;1.70;;;15.50;99.90;;;;;;5063322;28;20051;-79
2023/07/11 04:11:27;;;;;;;5.15;1.48;;;15.50;99.90;;;;;;5061206;28;20063;-80
2023/07/11 04:13:52;;;;;;;3.20;1.20;;;15.50;99.90;;;;;;5064087;28;20040;-80
2023/07/11 04:16:18;;;;;;;6.55;1.70;;;15.50;99.90;;;;;;5063643;28;20053;-81
2023/07/11 04:18:43;;;;;;;8.25;1.40;;;15.50;99.90;;;;;;5059289;28;20045;-81
2023/07/11 04:21:09;;;;;;;3.50;1.70;;;15.60;99.90;;;;;;5060445;28;20075;-81
2023/07/11 04:23:34;;;;;;;4.82;2.63;;;15.60;99.90;;;;;;5059298;28;20047;-79
2023/07/11 04:26:00;;;;;;;4.03;1.65;;;15.70;99.90;;;;;;5063147;28;20052;-82
2023/07/11 04:28:26;;;;;;;1.20;1.08;;;16.00;99.90;;;;;;5059112;28;20041;-81
2023/07/11 04:30:51;;;;;;;4.32;1.80;;;16.90;99.90;;;;;;5062177;28;20072;-82
2023/07/11 04:33:17;;;;;;;4.43;2.08;;;17.70;99.90;;;;;;5062096;28;20036;-81
2023/07/11 04:35:44;;;;;;;8.15;2.60;;;18.00;99.90;;;;;;5068852;28;20105;-82
2023/07/11 04:38:10;;;;;;;5.05;2.83;;;18.60;99.90;;;;;;5066430;28;20045;-79
2023/07/11 04:40:35;;;;;;;5.70;2.25;;;19.30;99.90;;;;;;5067082;28;20109;-81
2023/07/11 04:43:01;;;;;;;5.18;2.33;;;19.90;99.90;;;;;;5064777;28;20048;-80
2023/07/11 04:45:27;;;;;;;9.55;2.80;;;20.40;99.90;;;;;;5067982;28;20044;-81
2023/07/11 04:47:52;;;;;;;7.00;2.97;;;20.90;99.90;;;;;;5065846;28;20044;-77
2023/07/11 04:50:18;;;;;;;10.68;4.00;;;20.80;99.90;;;;;;5068423;28;20569;-82
2023/07/11 04:52:44;;;;;;;8.10;3.95;;;20.70;99.90;;;;;;5064711;28;20094;-77
2023/07/11 04:55:10;;;;;;;6.68;3.30;;;20.60;99.90;;;;;;5065322;28;20124;-80
2023/07/11 04:57:36;;;;;;;6.78;3.20;;;20.30;99.90;;;;;;5064963;28;20051;-80
2023/07/11 05:00:02;;;;;;;6.45;2.63;;;20.40;99.90;;;;;;5062042;28;20041;-83
2023/07/11 05:02:28;;;;;;;6.85;3.30;;;21.00;99.90;;;;;;5064488;28;20037;-78
2023/07/11 05:04:53;;;;;;;9.20;2.85;;;21.20;99.90;;;;;;5066649;28;20042;-82
2023/07/11 05:07:19;;;;;;;6.22;3.03;;;21.30;99.90;;;;;;5064515;28;20075;-82
2023/07/11 05:09:44;;;;;;;6.97;2.65;;;21.00;99.90;;;;;;5065603;28;20066;-78
2023/07/11 05:12:10;;;;;;;11.15;3.13;;;21.00;99.90;;;;;;5063684;28;20036;-80
2023/07/11 05:14:36;;;;;;;7.88;3.15;;;20.70;99.90;;;;;;5065393;28;20063;-81
2023/07/11 05:17:02;;;;;;;7.63;3.28;;;20.60;99.90;;;;;;5064887;28;20040;-79
2023/07/11 05:19:28;;;;;;;7.45;3.22;;;20.50;99.90;;;;;;5066119;28;20128;-81
2023/07/11 05:21:54;;;;;;;6.18;2.97;;;20.40;99.90;;;;;;5060903;28;20123;-81
2023/07/11 05:24:19;;;;;;;7.70;3.30;;;20.70;99.90;;;;;;5058303;28;20036;-82
2023/07/11 05:26:45;;;;;;;7.57;2.78;;;21.80;99.90;;;;;;5057963;28;20045;-80
2023/07/11 05:29:10;;;;;;;8.70;3.25;;;23.20;99.90;;;;;;5055057;28;20048;-81
2023/07/11 05:31:36;;;;;;;7.35;2.90;;;24.50;99.90;;;;;;5058401;28;20040;-81
2023/07/11 05:34:02;;;;;;;4.80;2.70;;;25.50;99.90;;;;;;5055211;28;20110;-81
2023/07/11 05:36:32;;;;;;;10.77;2.58;;;26.40;99.90;;;;;;5055948;28;20029;-81
2023/07/11 05:39:03;;;;;;;6.10;2.80;;;27.00;99.90;;;;;;5058100;28;20040;-78
2023/07/11 05:41:29;;;;;;;9.98;2.60;;;26.80;99.90;;;;;;5056794;28;20048;-80
2023/07/11 05:43:55;;;;;;;5.13;3.13;;;26.50;99.90;;;;;;5054157;28;20048;-81
2023/07/11 05:46:24;;;;;;;9.80;3.33;;;25.90;99.90;;;;;;5053064;28;20108;-80
2023/07/11 05:48:51;;;;;;;8.98;3.63;;;25.30;99.90;;;;;;5051132;28;20040;-80
2023/07/11 05:51:17;;;;;;;5.38;2.53;;;24.90;99.90;;;;;;5053036;28;20053;-84
2023/07/11 05:53:43;;;;;;;6.63;3.45;;;24.70;99.90;;;;;;5061338;28;20063;-82
2023/07/11 05:56:08;;;;;;;5.68;3.10;;;24.70;99.90;;;;;;5065205;28;20044;-82
2023/07/11 05:58:35;;;;;;;8.73;3.53;;;24.70;99.90;;;;;;5061181;28;20482;-80
2023/07/11 06:01:01;;;;;;;7.72;3.38;;;24.70;99.90;;;;;;5063854;28;20032;-81
2023/07/11 06:03:29;;;;;;;5.68;3.22;;;24.70;99.90;;;;;;5063789;28;20040;-82
2023/07/11 06:06:03;;;;;;;7.65;3.22;;;24.80;99.90;;;;;;5060418;28;20439;-82
2023/07/11 06:08:31;;;;;;;8.03;3.10;;;24.80;99.90;;;;;;5059276;28;20049;-82
2023/07/11 06:10:58;;;;;;;8.70;2.70;;;25.00;99.90;;;;;;5062013;28;20295;-82
2023/07/11 06:13:24;;;;;;;9.75;3.40;;;25.00;99.90;;;;;;5061042;28;20086;-83
2023/07/11 06:15:55;;;;;;;11.02;3.47;;;24.80;99.90;;;;;;5060423;28;20037;-82
2023/07/11 06:18:20;;;;;;;8.35;3.38;;;24.70;99.90;;;;;;5059493;28;20056;-82
2023/07/11 06:20:46;;;;;;;12.98;3.17;;;24.70;99.90;;;;;;5062172;28;20044;-82
2023/07/11 06:23:12;;;;;;;5.70;3.47;;;24.90;99.90;;;;;;5059336;28;20041;-82
2023/07/11 06:25:38;;;;;;;12.88;3.88;;;24.90;99.90;;;;;;5058486;28;20060;-82
2023/07/11 06:28:04;;;;;;;6.03;2.67;;;25.00;99.90;;;;;;5055774;28;20086;-82
2023/07/11 06:30:29;;;;;;;13.05;3.22;;;25.10;99.90;;;;;;5059749;28;20041;-82
2023/07/11 06:32:56;;;;;;;10.10;2.95;;;25.00;99.90;;;;;;5060070;28;20087;-82
2023/07/11 06:35:21;;;;;;;7.43;3.20;;;25.00;99.90;;;;;;5058767;28;20044;-82
2023/07/11 06:37:47;;;;;;;6.85;2.72;;;25.20;99.90;;;;;;5059486;28;20044;-82
2023/07/11 06:40:13;;;;;;;6.95;2.97;;;25.30;99.90;;;;;;5061205;28;20054;-82
2023/07/11 06:42:39;;;;;;;6.13;3.20;;;25.40;99.90;;;;;;5058441;28;20044;-83
2023/07/11 06:45:05;;;;;;;10.50;3.65;;;25.30;99.90;;;;;;5062945;28;20051;-82
2023/07/11 06:47:33;;;;;;;10.80;4.35;;;25.30;99.90;;;;;;5060114;28;20045;-83
2023/07/11 06:49:58;;;;;;;11.73;3.20;;;25.30;99.90;;;;;;5061424;28;20037;-82
2023/07/11 06:52:24;;;;;;;7.78;3.78;;;25.30;99.90;;;;;;5058328;28;20090;-83
2023/07/11 06:54:50;;;;;;;7.50;3.60;;;25.40;99.90;;;;;;5060096;28;20036;-82
2023/07/11 06:57:18;;;;;;;8.27;3.67;;;25.30;99.90;;;;;;5059339;28;20086;-82
2023/07/11 06:59:47;;;;;;;9.85;3.20;;;25.40;99.90;;;;;;5061580;28;20044;-83
2023/07/11 07:02:13;;;;;;;7.13;3.22;;;25.40;99.90;;;;;;5059835;28;20040;-83
2023/07/11 07:04:39;;;;;;;6.32;2.97;;;25.40;99.90;;;;;;5059287;28;20135;-82
2023/07/11 07:07:04;;;;;;;5.68;3.50;;;25.60;99.90;;;;;;5059973;28;20044;-83
2023/07/11 07:09:30;;;;;;;7.07;3.47;;;25.70;99.90;;;;;;5060287;28;20044;-82
2023/07/11 07:11:55;;;;;;;7.75;2.95;;;25.70;99.90;;;;;;5059877;28;20923;-82
2023/07/11 07:14:22;;;;;;;8.43;3.47;;;25.70;99.90;;;;;;5058829;28;20029;-83
2023/07/11 07:16:48;;;;;;;7.30;3.28;;;25.70;99.90;;;;;;5060269;28;20056;-83
2023/07/11 07:19:13;;;;;;;8.93;3.42;;;25.60;99.90;;;;;;5061474;28;20040;-82
2023/07/11 07:21:39;;;;;;;10.75;4.03;;;25.70;99.90;;;;;;5057466;28;20043;-82
2023/07/11 07:24:05;;;;;;;9.05;3.70;;;25.80;99.90;;;;;;5057979;28;20037;-84
2023/07/11 07:26:31;;;;;;;11.32;4.28;;;25.90;99.90;;;;;;5059680;28;20036;-82
2023/07/11 07:28:56;;;;;;;11.10;3.60;;;25.90;99.90;;;;;;5056793;28;20070;-82
2023/07/11 07:31:23;;;;;;;7.78;3.42;;;25.90;99.90;;;;;;5060226;28;20040;-82
2023/07/11 07:33:48;;;;;;;7.60;3.40;;;25.90;99.90;;;;;;5058969;28;20036;-82
2023/07/11 07:36:14;;;;;;;6.18;3.42;;;26.00;99.90;;;;;;5059160;28;20500;-82
2023/07/11 07:38:39;;;;;;;9.38;3.35;;;25.90;99.90;;;;;;5058580;28;20036;-82
2023/07/11 07:41:08;;;;;;;6.32;3.42;;;25.90;99.90;;;;;;5059458;28;20033;-83
2023/07/11 07:43:36;;;;;;;5.82;3.30;;;25.90;99.90;;;;;;5060983;28;20040;-83
2023/07/11 07:46:03;;;;;;;5.05;2.95;;;25.80;99.90;;;;;;5059463;28;20086;-83
2023/07/11 07:48:29;;;;;;;7.88;3.10;;;25.80;99.90;;;;;;5059898;28;20063;-82
2023/07/11 07:51:03;;;;;;;11.13;3.72;;;25.70;99.90;;;;;;5061131;28;20819;-82
2023/07/11 07:53:28;;;;;;;6.22;2.97;;;25.80;99.90;;;;;;5056629;28;20623;-83
2023/07/11 07:55:54;;;;;;;10.38;3.13;;;25.80;99.90;;;;;;5056688;28;20045;-82
2023/07/11 07:58:19;;;;;;;7.03;2.88;;;25.80;99.90;;;;;;5058529;28;20719;-83
2023/07/11 08:00:45;;;;;;;8.07;3.35;;;25.60;99.90;;;;;;5058307;28;20032;-82
2023/07/11 08:03:10;;;;;;;9.07;3.20;;;25.50;99.90;;;;;;5057972;28;20102;-82
2023/07/11 08:05:37;;;;;;;5.60;2.60;;;25.60;99.90;;;;;;5061884;28;20461;-83
2023/07/11 08:08:04;;;;;;;6.15;2.60;;;25.60;99.90;;;;;;5056838;28;20529;-82
2023/07/11 08:10:31;;;;;;;5.57;3.13;;;25.60;99.90;;;;;;5056979;28;20045;-82
2023/07/11 08:12:57;;;;;;;9.50;2.67;;;25.60;99.90;;;;;;5060346;28;20434;-83
2023/07/11 08:15:22;;;;;;;10.02;2.80;;;25.60;99.90;;;;;;5056482;28;20051;-84
2023/07/11 08:17:48;;;;;;;6.15;2.55;;;25.70;99.90;;;;;;5060513;28;20040;-83
2023/07/11 08:20:14;;;;;;;10.55;2.10;;;26.00;99.90;;;;;;5060036;28;20098;-83
2023/07/11 08:22:39;;;;;;;5.00;2.20;;;26.30;99.90;;;;;;5062408;28;20036;-82
2023/07/11 08:25:05;;;;;;;4.30;2.53;;;26.40;99.90;;;;;;5059696;28;20029;-83
2023/07/11 08:27:31;;;;;;;8.48;2.20;;;26.40;99.90;;;;;;5064307;28;20463;-84
2023/07/11 08:29:56;;;;;;;6.90;1.92;;;26.60;99.90;;;;;;5059368;28;20044;-84
2023/07/11 08:32:22;;;;;;;6.53;2.00;;;26.80;99.90;;;;;;5060496;28;20038;-84
2023/07/11 08:34:48;;;;;;;7.82;1.60;;;27.10;99.90;;;;;;5052802;28;20037;-83
2023/07/11 08:37:13;;;;;;;5.32;1.90;;;27.20;99.90;;;;;;5062752;28;20123;-83
2023/07/11 08:39:39;;;;;;;4.80;1.40;;;27.20;99.80;;;;;;5066781;28;20044;-84
2023/07/11 08:42:17;;;;;;;8.15;1.75;;;27.30;99.20;;;;;;5063693;28;20473;-83
2023/07/11 08:45:03;;;;;;;6.03;1.48;;;27.40;97.90;;;;;;5062130;28;20040;-84
2023/07/11 08:47:33;;;;;;;6.07;1.60;;;27.60;98.00;;;;;;5059968;28;20036;-84
2023/07/11 08:50:09;;;;;;;2.35;1.35;;;27.60;97.90;;;;;;5036273;28;20044;-83
2023/07/11 08:52:35;;;;;;;6.95;1.73;;;27.60;97.30;;;;;;5060835;28;20086;-84
2023/07/11 08:55:25;;;;;;;4.57;1.40;;;27.60;97.70;;;;;;5066083;28;20499;-83
2023/07/11 08:58:10;;;;;;;8.52;1.50;;;27.80;98.10;;;;;;5060663;28;20048;-84
2023/07/11 09:00:36;;;;;;;8.63;2.03;;;27.80;96.60;;;;;;5055761;28;20469;-84
2023/07/11 09:03:30;;;;;;;4.63;1.65;;;27.80;97.10;;;;;;5064871;28;20068;-84
2023/07/11 09:06:07;;;;;;;10.82;1.73;;;28.00;97.50;;;;;;5058433;28;20086;-83
2023/07/11 09:08:41;;;;;;;8.40;1.75;;;28.10;97.50;;;;;;5059112;28;20055;-83
2023/07/11 09:11:20;;;;;;;10.10;1.75;;;28.10;97.20;;;;;;5065055;28;20040;-83
2023/07/11 09:14:02;;;;;;;8.15;1.58;;;28.00;96.00;;;;;;5060243;28;20033;-84
2023/07/11 09:16:41;;;;;;;6.15;1.58;;;27.90;95.90;;;;;;5059429;28;20045;-84
2023/07/11 09:19:34;;;;;;;7.65;1.35;;;27.70;95.80;;;;;;5060349;28;20079;-83
2023/07/11 09:22:23;;;;;;;4.00;1.20;;;27.80;96.50;;;;;;5061314;28;20510;-83
2023/07/11 09:24:58;;;;;;;6.20;1.90;;;28.00;97.10;;;;;;5068145;28;20086;-83
2023/07/11 09:27:36;;;;;;;3.97;1.58;;;28.20;96.40;;;;;;5068790;28;20048;-83
2023/07/11 09:30:13;;;;;;;3.75;1.15;;;28.60;96.20;;;;;;5069568;28;20063;-84
2023/07/11 09:32:39;;;;;;;10.93;2.53;;;28.90;96.10;;;;;;5064778;28;20043;-83
2023/07/11 09:35:28;;;;;;;3.95;1.55;;;29.10;95.30;;;;;;5061239;28;20044;-83
2023/07/11 09:38:13;;;;;;;11.70;1.73;;;29.10;95.40;;;;;;5058852;28;20053;-81
2023/07/11 09:40:47;;;;;;;5.35;1.60;;;29.10;94.50;;;;;;5063119;28;20043;-82
2023/07/11 09:43:13;;;;;;;6.15;1.60;;;28.90;94.60;;;;;;5063475;28;20388;-83
2023/07/11 09:45:47;;;;;;;5.78;1.75;;;28.70;94.70;;;;;;5061204;28;20042;-82
2023/07/11 09:48:19;;;;;;;5.20;1.50;;;28.40;94.20;;;;;;5061674;28;20047;-83
2023/07/11 09:51:00;;;;;;;6.55;1.67;;;28.30;94.30;;;;;;5060782;28;20036;-83
2023/07/11 09:53:28;;;;;;;6.22;1.33;;;28.10;94.60;;;;;;5060200;28;20072;-83
2023/07/11 09:56:14;;;;;;;8.00;1.83;;;28.00;95.40;;;;;;5063363;28;20043;-82
2023/07/11 09:58:45;;;;;;;34.20;2.83;;;28.30;95.50;;;;;;5062792;28;20078;-83
2023/07/11 10:01:33;;;;;;;3.25;1.27;;;28.70;96.10;;;;;;5063162;28;20037;-84
2023/07/11 10:04:00;;;;;;;8.38;2.30;;;29.00;95.40;;;;;;5057168;28;20033;-82
2023/07/11 10:06:42;;;;;;;14.93;2.83;;;29.30;95.50;;;;;;5061654;28;20041;-83
2023/07/11 10:09:23;;;;;;;10.35;1.35;;;29.40;94.70;;;;;;5061845;28;20124;-82
2023/07/11 10:11:52;;;;;;;6.13;1.50;;;29.60;95.30;;;;;;5061362;28;20083;-80
2023/07/11 10:14:23;;;;;;;5.30;1.30;;;29.80;95.00;;;;;;5059237;28;20052;-82
2023/07/11 10:16:48;;;;;;;5.97;1.27;;;29.90;95.20;;;;;;5063927;28;20499;-82
2023/07/11 10:19:17;;;;;;;3.58;1.38;;;30.10;95.00;;;;;;5059877;28;20048;-83
2023/07/11 10:21:47;;;;;;;5.07;1.60;;;30.20;94.80;;;;;;5062301;28;20128;-82
2023/07/11 10:24:21;;;;;;;4.13;1.63;;;30.30;94.10;;;;;;5060114;28;20045;-80
2023/07/11 10:26:49;;;;;;;4.22;1.33;;;30.40;94.50;;;;;;5064454;28;20036;-83
2023/07/11 10:29:19;;;;;;;5.18;1.95;;;30.50;94.10;;;;;;5057972;28;20059;-81
2023/07/11 10:31:57;;;;;;;3.70;1.92;;;30.40;93.80;;;;;;5062108;28;20530;-83
2023/07/11 10:34:27;;;;;;;6.32;1.80;;;30.60;94.70;;;;;;5060211;28;20056;-83
2023/07/11 10:36:58;;;;;;;3.33;1.17;;;30.60;93.70;;;;;;5059366;28;20163;-83
2023/07/11 10:39:36;;;;;;;4.43;1.33;;;30.70;93.70;;;;;;5057599;28;20134;-82
2023/07/11 10:42:26;;;;;;;10.98;1.83;;;30.60;93.30;;;;;;5060007;28;20079;-84
2023/07/11 10:45:01;;;;;;;8.65;1.73;;;30.70;92.80;;;;;;5056715;28;20041;-85
2023/07/11 10:47:32;;;;;;;6.45;2.03;;;30.70;92.60;;;;;;5059425;28;20044;-84
2023/07/11 10:50:06;;;;;;;3.47;1.63;;;30.80;93.30;;;;;;5062564;28;20446;-83
2023/07/11 10:52:35;;;;;;;5.22;1.75;;;30.80;92.60;;;;;;5043192;28;20102;-82
2023/07/11 10:55:32;;;;;;;4.30;2.10;;;30.80;93.60;;;;;;5061673;28;20115;-83
2023/07/11 10:57:58;;;;;;;6.00;1.27;;;30.90;93.20;;;;;;5060470;28;20060;-81
2023/07/11 11:00:48;;;;;;;8.40;1.17;;;31.00;92.30;;;;;;5058423;28;20151;-83
2023/07/11 11:03:17;;;;;;;6.93;1.52;;;31.00;91.60;;;;;;5062841;28;20051;-81
2023/07/11 11:05:56;;;;;;;6.32;1.65;;;30.90;91.90;;;;;;5060704;28;20494;-81
2023/07/11 11:08:29;;;;;;;3.65;1.52;;;30.90;92.10;;;;;;5057094;28;20490;-82
2023/07/11 11:11:10;;;;;;;7.32;1.67;;;30.90;92.60;;;;;;5059826;28;20044;-82
2023/07/11 11:14:01;;;;;;;14.77;2.00;;;31.10;93.10;;;;;;5060641;28;20045;-82
2023/07/11 11:16:34;;;;;;;8.38;2.15;;;31.10;92.60;;;;;;5058351;28;20128;-83
2023/07/11 11:19:17;;;;;;;7.72;1.30;;;31.10;92.00;;;;;;5058830;28;20402;-84
2023/07/11 11:22:14;;;;;;;9.23;2.10;;;31.10;92.10;;;;;;5058526;28;20036;-83
2023/07/11 11:24:46;;;;;;;10.10;1.98;;;31.10;91.80;;;;;;5060203;28;20044;-83
2023/07/11 11:27:33;;;;;;;12.80;1.80;;;31.10;92.10;;;;;;5062538;28;20034;-81
2023/07/11 11:30:22;;;;;;;10.30;2.45;;;31.10;91.20;;;;;;5058613;28;20044;-81
2023/07/11 11:33:24;;;;;;;4.70;1.55;;;31.10;90.50;;;;;;5056526;28;20036;-83
2023/07/11 11:36:14;;;;;;;8.32;1.40;;;31.00;90.10;;;;;;5059688;28;20052;-81
2023/07/11 11:39:02;;;;;;;5.07;1.25;;;31.10;90.60;;;;;;5058973;28;20075;-83
2023/07/11 11:41:43;;;;;;;9.20;1.58;;;31.10;90.90;;;;;;5061186;28;20052;-83
2023/07/11 11:44:19;;;;;;;11.27;1.45;;;31.20;90.20;;;;;;5058911;28;20171;-83
2023/07/11 11:46:46;;;;;;;7.43;1.58;;;31.20;90.30;;;;;;5057322;28;20033;-83
2023/07/11 11:49:13;;;;;;;8.45;1.33;;;31.20;90.60;;;;;;5060812;28;20560;-83
2023/07/11 11:51:41;;;;;;;6.28;1.88;;;31.20;90.40;;;;;;5061644;28;20048;-83
2023/07/11 11:54:18;;;;;;;4.15;1.65;;;31.20;90.20;;;;;;5059407;28;20503;-82
2023/07/11 11:56:47;;;;;;;4.60;1.60;;;31.10;89.10;;;;;;5058798;28;20401;-81
2023/07/11 11:59:25;;;;;;;6.53;2.25;;;31.10;90.70;;;;;;5058896;28;20044;-82
2023/07/11 12:01:54;;;;;;;4.20;1.70;;;31.10;90.30;;;;;;5058849;28;20037;-82
2023/07/11 12:04:32;;;;;;;4.90;1.67;;;31.00;91.10;;;;;;5061232;28;20083;-83
2023/07/11 12:07:13;;;;;;;4.93;1.65;;;31.00;90.70;;;;;;5056196;28;20068;-82
2023/07/11 12:09:56;;;;;;;13.00;2.05;;;30.90;90.10;;;;;;5054698;28;20104;-83
2023/07/11 12:12:30;;;;;;;2.85;1.48;;;30.90;90.10;;;;;;5063761;28;20055;-83
2023/07/11 12:14:59;;;;;;;8.07;1.48;;;31.00;90.10;;;;;;5060199;28;20049;-82
2023/07/11 12:17:33;;;;;;;5.95;1.58;;;30.80;90.00;;;;;;5057731;28;20040;-83
2023/07/11 12:20:08;;;;;;;6.38;1.55;;;30.90;90.10;;;;;;5060170;28;20559;-82
2023/07/11 12:22:36;;;;;;;4.18;1.35;;;30.80;90.10;;;;;;5060916;28;20067;-82
2023/07/11 12:25:14;;;;;;;11.43;1.58;;;30.80;90.00;;;;;;5061399;28;20041;-83
2023/07/11 12:27:46;;;;;;;5.40;1.42;;;30.70;91.00;;;;;;5065399;28;20048;-81
2023/07/11 12:30:15;;;;;;;8.32;1.48;;;30.70;90.90;;;;;;5056244;28;20048;-83
2023/07/11 12:32:48;;;;;;;6.53;1.58;;;30.60;90.10;;;;;;5062569;28;20083;-83
2023/07/11 12:35:20;;;;;;;6.53;1.65;;;30.60;90.00;;;;;;5058781;28;20040;-83
2023/07/11 12:38:01;;;;;;;8.95;1.75;;;30.50;90.20;;;;;;5066594;28;20071;-81
2023/07/11 12:40:45;;;;;;;8.13;1.67;;;30.40;90.10;;;;;;5057871;28;20037;-83
2023/07/11 12:43:21;;;;;;;4.90;1.20;;;30.40;90.00;;;;;;5059482;28;20036;-83
2023/07/11 12:46:07;;;;;;;3.35;1.58;;;30.40;90.20;;;;;;5057205;28;20391;-82
2023/07/11 12:48:36;;;;;;;8.15;2.38;;;30.40;90.20;;;;;;5060051;28;20040;-83
2023/07/11 12:51:20;;;;;;;7.05;1.70;;;30.50;90.80;;;;;;5060780;28;20430;-83
2023/07/11 12:53:46;;;;;;;6.32;1.80;;;30.50;90.00;;;;;;5058496;28;20096;-82
2023/07/11 12:56:13;;;;;;;9.27;1.80;;;30.40;90.40;;;;;;5060367;28;20116;-82
2023/07/11 12:58:40;;;;;;;4.35;1.77;;;30.10;90.20;;;;;;5061166;28;20047;-82